Adams, Minnesota
Current Conditions -  °F | °C
As of 2:16 AM on Friday 24 Oct 2014 (Local Time) from KAUM Reporting Station
Moderate Fog Moderate Fog  
Wind Chill: 46°   Ceiling: 200
Heat Index: 46°   Visibility: 0mi
Dew Point: 46°   Wind: 3mph
Humidity: 100%   Direction: 170°S
Pressure: 30.01"   Gusts: NA
Location:  43.57°N, 92.72°W
Report Text: KAUM 240716Z AUTO 17003KT M1/4SM FG OVC002 08/08 A3001 RMK AO2
Loading
Personal Weather Stations






























Interactive Weather Map
Tropical Storm Tracking
New forecast layout! Learn more

10-Day Weather Forecast

Advertisements
Track Severe Weather on mobile